createdAt,value
2024-01-14T00:01:19.134Z,14.12
2024-01-14T00:04:21.614Z,14.19
2024-01-14T00:07:24.090Z,14.34
2024-01-14T00:10:26.575Z,14.46
2024-01-14T00:13:28.961Z,14.52
2024-01-14T00:16:35.564Z,14.65
2024-01-14T00:19:38.377Z,14.77
2024-01-14T00:22:40.883Z,14.71
2024-01-14T00:25:43.294Z,14.75
2024-01-14T00:28:45.702Z,14.68
2024-01-14T00:31:48.116Z,14.69
2024-01-14T00:34:50.555Z,14.62
2024-01-14T00:37:53.249Z,14.53
2024-01-14T00:40:55.958Z,14.51
2024-01-14T00:43:58.404Z,14.47
2024-01-14T00:47:01.321Z,14.42
2024-01-14T00:50:03.971Z,14.41
2024-01-14T00:53:06.397Z,14.35
2024-01-14T00:56:08.788Z,14.25
2024-01-14T00:59:11.340Z,14.09
2024-01-14T01:02:13.822Z,14.11
2024-01-14T01:05:16.424Z,14.09
2024-01-14T01:08:18.949Z,13.97
2024-01-14T01:11:21.406Z,13.98
2024-01-14T01:14:23.779Z,13.87
2024-01-14T01:17:26.262Z,13.78
2024-01-14T01:20:28.638Z,13.75
2024-01-14T01:23:31.045Z,13.60
2024-01-14T01:26:33.482Z,13.61
2024-01-14T01:29:36.015Z,13.56
2024-01-14T01:32:38.571Z,13.58
2024-01-14T01:35:41.261Z,13.65
2024-01-14T01:38:43.688Z,13.71
2024-01-14T01:41:46.155Z,13.74
2024-01-14T01:44:48.622Z,13.80
2024-01-14T01:47:51.258Z,13.89
2024-01-14T01:50:56.032Z,13.97
2024-01-14T01:53:59.197Z,14.14
2024-01-14T01:57:01.619Z,14.15
2024-01-14T02:00:04.801Z,14.38
2024-01-14T02:03:14.888Z,14.51
2024-01-14T02:06:17.854Z,14.65
2024-01-14T02:09:20.715Z,14.71
2024-01-14T02:12:23.177Z,14.83
2024-01-14T02:15:25.725Z,14.94
2024-01-14T02:18:28.291Z,14.94
2024-01-14T02:21:43.016Z,14.85
2024-01-14T02:24:46.539Z,14.90
2024-01-14T02:27:49.857Z,14.79
2024-01-14T02:30:52.682Z,14.77
2024-01-14T02:33:55.263Z,14.74
2024-01-14T02:36:57.800Z,14.62
2024-01-14T02:40:00.362Z,14.60
2024-01-14T02:43:02.855Z,14.59
2024-01-14T02:46:05.344Z,14.56
2024-01-14T02:49:07.872Z,14.43
2024-01-14T02:52:10.558Z,14.42
2024-01-14T02:55:13.088Z,14.31
2024-01-14T02:58:15.546Z,14.30
2024-01-14T03:01:18.101Z,14.19
2024-01-14T03:04:20.594Z,13.98
2024-01-14T03:07:23.010Z,13.99
2024-01-14T03:10:25.415Z,14.00
2024-01-14T03:13:29.279Z,13.94
2024-01-14T03:16:31.653Z,13.89
2024-01-14T03:19:34.413Z,13.84
2024-01-14T03:22:36.899Z,13.78
2024-01-14T03:25:39.457Z,13.76
2024-01-14T03:28:41.823Z,13.80
2024-01-14T03:31:44.239Z,13.86
2024-01-14T03:34:46.616Z,13.92
2024-01-14T03:37:49.494Z,13.97
2024-01-14T03:40:51.893Z,14.07
2024-01-14T03:43:54.313Z,14.15
2024-01-14T03:46:56.849Z,14.15
2024-01-14T03:49:59.266Z,14.37
2024-01-14T03:53:01.774Z,14.42
2024-01-14T03:56:04.412Z,14.58
2024-01-14T03:59:07.314Z,14.76
2024-01-14T04:02:09.869Z,14.88
2024-01-14T04:05:12.315Z,15.02
2024-01-14T04:08:14.703Z,15.10
2024-01-14T04:11:17.080Z,15.13
2024-01-14T04:14:19.453Z,15.12
2024-01-14T04:17:21.835Z,15.05
2024-01-14T04:20:25.461Z,15.04
2024-01-14T04:23:28.112Z,14.88
2024-01-14T04:26:31.216Z,14.93
2024-01-14T04:29:33.689Z,14.85
2024-01-14T04:32:36.651Z,14.83
2024-01-14T04:35:39.771Z,14.69
2024-01-14T04:38:42.551Z,14.70
2024-01-14T04:41:44.987Z,14.63
2024-01-14T04:44:47.412Z,14.61
2024-01-14T04:47:50.042Z,14.56
2024-01-14T04:50:53.008Z,14.48
2024-01-14T04:53:55.675Z,14.43
2024-01-14T04:56:59.105Z,14.37
2024-01-14T05:00:01.564Z,14.30
2024-01-14T05:03:04.351Z,14.18
2024-01-14T05:06:07.002Z,14.07
2024-01-14T05:09:09.676Z,14.05
2024-01-14T05:12:12.089Z,13.99
2024-01-14T05:15:14.595Z,13.97
2024-01-14T05:18:17.273Z,13.97
2024-01-14T05:21:23.609Z,13.97
2024-01-14T05:24:25.976Z,14.03
2024-01-14T05:27:28.434Z,14.09
2024-01-14T05:30:31.163Z,14.09
2024-01-14T05:33:33.679Z,14.21
2024-01-14T05:36:37.364Z,14.33
2024-01-14T05:39:40.060Z,14.45
2024-01-14T05:42:43.908Z,14.57
2024-01-14T05:45:47.055Z,14.69
2024-01-14T05:48:49.671Z,14.82
2024-01-14T05:51:52.202Z,14.92
2024-01-14T05:54:54.606Z,14.99
2024-01-14T05:57:57.056Z,15.19
2024-01-14T06:01:00.052Z,15.19
2024-01-14T06:04:02.643Z,15.26
2024-01-14T06:07:05.340Z,15.25
2024-01-14T06:10:09.574Z,15.25
2024-01-14T06:13:11.952Z,15.13
2024-01-14T06:16:14.575Z,15.07
2024-01-14T06:19:17.907Z,15.03
2024-01-14T06:22:20.397Z,14.99
2024-01-14T06:25:22.803Z,14.98
2024-01-14T06:28:25.310Z,14.94
2024-01-14T06:31:27.922Z,14.90
2024-01-14T06:34:30.611Z,14.80
2024-01-14T06:37:33.126Z,14.70
2024-01-14T06:40:41.190Z,14.63
2024-01-14T06:43:46.064Z,14.63
2024-01-14T06:46:49.495Z,14.55
2024-01-14T06:49:59.207Z,14.45
2024-01-14T06:53:09.529Z,14.36
2024-01-14T06:56:12.062Z,14.37
2024-01-14T06:59:16.076Z,14.32
2024-01-14T07:02:18.480Z,14.20
2024-01-14T07:05:20.917Z,14.14
2024-01-14T07:08:23.329Z,14.16
2024-01-14T07:11:25.858Z,14.19
2024-01-14T07:14:28.207Z,14.20
2024-01-14T07:17:53.516Z,14.19
2024-01-14T07:20:53.566Z,14.27
2024-01-14T07:23:56.805Z,14.44
2024-01-14T07:27:00.035Z,14.47
2024-01-14T07:30:02.950Z,14.64
2024-01-14T07:33:05.642Z,14.70
2024-01-14T07:36:09.037Z,14.87
2024-01-14T07:39:11.657Z,14.98
2024-01-14T07:42:14.112Z,15.09
2024-01-14T07:45:16.536Z,15.22
2024-01-14T07:48:19.239Z,15.36
2024-01-14T07:51:23.766Z,15.39
2024-01-14T07:54:26.529Z,15.44
2024-01-14T07:57:29.015Z,15.38
2024-01-14T08:00:31.598Z,15.42
2024-01-14T08:03:34.340Z,15.34
2024-01-14T08:06:36.873Z,15.35
2024-01-14T08:09:39.371Z,15.27
2024-01-14T08:12:42.626Z,15.20
2024-01-14T08:15:53.923Z,15.17
2024-01-14T08:19:04.637Z,15.09
2024-01-14T08:22:07.210Z,15.03
2024-01-14T08:25:10.884Z,15.01
2024-01-14T08:28:13.379Z,14.94
2024-01-14T08:31:15.870Z,14.88
2024-01-14T08:34:18.487Z,14.76
2024-01-14T08:37:20.923Z,14.80
2024-01-14T08:40:23.337Z,14.76
2024-01-14T08:43:25.756Z,14.66
2024-01-14T08:46:28.386Z,14.61
2024-01-14T08:49:31.740Z,14.51
2024-01-14T08:52:34.579Z,14.51
2024-01-14T08:55:37.036Z,14.43
2024-01-14T08:58:39.460Z,14.53
2024-01-14T09:01:41.947Z,14.58
2024-01-14T09:04:44.344Z,14.58
2024-01-14T09:07:46.809Z,14.74
2024-01-14T09:10:50.648Z,14.80
2024-01-14T09:13:53.277Z,14.94
2024-01-14T09:16:55.677Z,15.02
2024-01-14T09:19:58.256Z,15.10
2024-01-14T09:23:00.774Z,15.31
2024-01-14T09:26:03.244Z,15.36
2024-01-14T09:29:05.666Z,15.41
2024-01-14T09:32:08.384Z,15.41
2024-01-14T09:35:13.571Z,15.41
2024-01-14T09:38:16.020Z,15.36
2024-01-14T09:41:28.659Z,15.44
2024-01-14T09:44:31.086Z,15.42
2024-01-14T09:47:34.496Z,15.38
2024-01-14T09:50:37.729Z,15.34
2024-01-14T09:53:41.544Z,15.31
2024-01-14T09:56:45.749Z,15.29
2024-01-14T09:59:51.015Z,15.25
2024-01-14T10:02:53.391Z,15.16
2024-01-14T10:05:56.604Z,15.21
2024-01-14T10:08:59.778Z,15.24
2024-01-14T10:12:02.226Z,15.48
2024-01-14T10:15:06.038Z,15.80
2024-01-14T10:18:08.539Z,16.27
2024-01-14T10:21:11.138Z,17.06
2024-01-14T10:24:13.582Z,17.16
2024-01-14T10:27:33.674Z,17.05
2024-01-14T10:30:39.900Z,17.89
2024-01-14T10:33:42.545Z,18.62
2024-01-14T10:36:45.215Z,19.30
2024-01-14T10:39:47.591Z,19.71
2024-01-14T10:42:50.001Z,19.09
2024-01-14T10:45:53.673Z,18.26
2024-01-14T10:49:08.131Z,17.60
2024-01-14T10:52:14.259Z,17.06
2024-01-14T10:55:42.832Z,16.67
2024-01-14T10:58:46.675Z,16.33
2024-01-14T11:01:50.940Z,16.15
2024-01-14T11:04:53.458Z,16.00
2024-01-14T11:07:55.927Z,15.91
2024-01-14T11:10:58.927Z,15.72
2024-01-14T11:14:15.636Z,15.53
2024-01-14T11:17:33.245Z,15.48
2024-01-14T11:20:47.442Z,15.38
2024-01-14T11:24:00.816Z,15.18
2024-01-14T11:27:13.138Z,15.17
2024-01-14T11:30:20.105Z,15.27
2024-01-14T11:33:41.916Z,15.36
2024-01-14T11:36:57.761Z,15.42
2024-01-14T11:40:19.354Z,15.46
2024-01-14T11:43:26.595Z,15.56
2024-01-14T11:46:35.074Z,15.57
2024-01-14T11:49:37.614Z,15.53
2024-01-14T11:52:47.696Z,15.54
2024-01-14T11:55:50.452Z,15.50
2024-01-14T11:58:52.845Z,15.48
2024-01-14T12:01:58.058Z,15.43
2024-01-14T12:05:21.265Z,15.35
2024-01-14T12:08:24.791Z,15.30
2024-01-14T12:11:27.231Z,15.20
2024-01-14T12:14:29.693Z,15.13
2024-01-14T12:17:33.142Z,15.04
2024-01-14T12:20:35.762Z,15.01
2024-01-14T12:23:38.314Z,14.93
2024-01-14T12:26:46.826Z,14.87
2024-01-14T12:29:49.269Z,14.85
2024-01-14T12:32:51.734Z,14.80
2024-01-14T12:35:54.277Z,14.71
2024-01-14T12:38:56.742Z,14.69
2024-01-14T12:41:59.238Z,14.65
2024-01-14T12:45:02.425Z,14.61
2024-01-14T12:48:06.029Z,14.61
2024-01-14T12:51:08.849Z,14.56
2024-01-14T12:54:25.738Z,14.62
2024-01-14T12:57:29.527Z,14.75
2024-01-14T13:00:32.673Z,14.82
2024-01-14T13:03:37.730Z,14.90
2024-01-14T13:06:40.311Z,14.94
2024-01-14T13:09:43.654Z,15.07
2024-01-14T13:12:46.499Z,15.18
2024-01-14T13:15:49.015Z,15.29
2024-01-14T13:18:51.647Z,15.42
2024-01-14T13:21:54.208Z,15.58
2024-01-14T13:24:56.689Z,15.70
2024-01-14T13:27:59.223Z,15.79
2024-01-14T13:31:01.759Z,15.79
2024-01-14T13:34:07.176Z,15.79
2024-01-14T13:37:10.407Z,15.82
2024-01-14T13:40:13.821Z,15.76
2024-01-14T13:43:16.343Z,15.77
2024-01-14T13:46:18.734Z,15.76
2024-01-14T13:49:21.412Z,15.71
2024-01-14T13:52:24.387Z,15.72
2024-01-14T13:55:27.009Z,15.65
2024-01-14T13:58:29.440Z,15.62
2024-01-14T14:01:31.932Z,15.52
2024-01-14T14:04:34.677Z,15.55
2024-01-14T14:07:38.495Z,15.46
2024-01-14T14:10:47.420Z,15.38
2024-01-14T14:13:52.399Z,15.32
2024-01-14T14:16:54.797Z,15.30
2024-01-14T14:19:57.415Z,15.21
2024-01-14T14:23:00.012Z,15.06
2024-01-14T14:26:02.417Z,15.01
2024-01-14T14:29:05.935Z,15.00
2024-01-14T14:32:09.069Z,15.06
2024-01-14T14:35:14.251Z,15.12
2024-01-14T14:38:16.966Z,15.18
2024-01-14T14:41:27.279Z,15.25
2024-01-14T14:44:35.927Z,15.33
2024-01-14T14:47:39.121Z,15.34
2024-01-14T14:50:41.707Z,15.48
2024-01-14T14:53:44.192Z,15.59
2024-01-14T14:56:46.687Z,15.66
2024-01-14T14:59:49.138Z,15.79
2024-01-14T15:02:51.613Z,15.89
2024-01-14T15:05:54.101Z,15.99
2024-01-14T15:08:56.539Z,15.99
2024-01-14T15:11:58.985Z,16.05
2024-01-14T15:15:01.600Z,16.00
2024-01-14T15:18:04.644Z,16.05
2024-01-14T15:21:07.468Z,15.92
2024-01-14T15:24:11.921Z,15.93
2024-01-14T15:27:14.646Z,15.90
2024-01-14T15:30:17.225Z,15.78
2024-01-14T15:33:19.991Z,15.77
2024-01-14T15:36:23.806Z,15.65
2024-01-14T15:39:26.678Z,15.65
2024-01-14T15:42:29.304Z,15.62
2024-01-14T15:45:31.744Z,15.53
2024-01-14T15:48:39.976Z,15.48
2024-01-14T15:51:42.914Z,15.42
2024-01-14T15:54:45.500Z,15.32
2024-01-14T15:57:48.986Z,15.21
2024-01-14T16:01:03.149Z,15.18
2024-01-14T16:04:11.842Z,15.11
2024-01-14T16:07:14.355Z,15.02
2024-01-14T16:10:17.082Z,14.93
2024-01-14T16:13:19.569Z,14.81
2024-01-14T16:16:22.197Z,14.78
2024-01-14T16:19:24.719Z,14.73
2024-01-14T16:22:27.125Z,14.66
2024-01-14T16:25:29.514Z,14.66
2024-01-14T16:28:32.819Z,14.67
2024-01-14T16:31:35.574Z,14.67
2024-01-14T16:34:38.140Z,14.76
2024-01-14T16:37:40.637Z,14.83
2024-01-14T16:40:48.128Z,14.90
2024-01-14T16:43:56.006Z,15.00
2024-01-14T16:46:58.430Z,15.10
2024-01-14T16:50:04.978Z,15.23
2024-01-14T16:53:08.853Z,15.30
2024-01-14T16:56:15.863Z,15.46
2024-01-14T16:59:18.523Z,15.59
2024-01-14T17:02:21.064Z,15.70
2024-01-14T17:05:23.479Z,15.78
2024-01-14T17:08:25.907Z,15.80
2024-01-14T17:11:28.311Z,15.75
2024-01-14T17:14:31.271Z,15.77
2024-01-14T17:17:34.617Z,15.72
2024-01-14T17:20:37.257Z,15.66
2024-01-14T17:23:39.806Z,15.59
2024-01-14T17:26:42.368Z,15.60
2024-01-14T17:29:44.827Z,15.55
2024-01-14T17:32:47.321Z,15.49
2024-01-14T17:36:00.491Z,15.41
2024-01-14T17:39:07.297Z,15.34
2024-01-14T17:42:09.822Z,15.34
2024-01-14T17:45:12.521Z,15.27
2024-01-14T17:48:15.019Z,15.15
2024-01-14T17:51:19.672Z,15.12
2024-01-14T17:54:22.236Z,14.99
2024-01-14T17:57:24.996Z,14.93
2024-01-14T18:00:27.844Z,14.88
2024-01-14T18:03:30.926Z,14.89
2024-01-14T18:06:33.863Z,14.90
2024-01-14T18:09:36.337Z,14.90
2024-01-14T18:12:39.022Z,14.97
2024-01-14T18:15:46.734Z,15.02
2024-01-14T18:18:52.471Z,15.03
2024-01-14T18:21:55.274Z,15.16
2024-01-14T18:24:57.862Z,15.21
2024-01-14T18:28:00.258Z,15.30
2024-01-14T18:31:03.076Z,15.41
2024-01-14T18:34:05.689Z,15.57
2024-01-14T18:37:08.213Z,15.69
2024-01-14T18:40:11.924Z,15.75
2024-01-14T18:43:14.446Z,15.84
2024-01-14T18:46:16.956Z,15.84
2024-01-14T18:49:19.660Z,15.74
2024-01-14T18:52:24.285Z,15.78
2024-01-14T18:55:27.159Z,15.66
2024-01-14T18:58:29.613Z,15.68
2024-01-14T19:01:32.212Z,15.59
2024-01-14T19:04:35.066Z,15.55
2024-01-14T19:07:37.788Z,15.46
2024-01-14T19:10:42.458Z,15.45
2024-01-14T19:13:45.371Z,15.41
2024-01-14T19:16:51.239Z,15.29
2024-01-14T19:19:54.100Z,15.25
2024-01-14T19:22:56.959Z,15.23
2024-01-14T19:25:59.922Z,15.11
2024-01-14T19:29:06.722Z,15.05
2024-01-14T19:32:09.567Z,14.97
2024-01-14T19:35:12.106Z,14.88
2024-01-14T19:38:14.826Z,14.88
2024-01-14T19:41:17.372Z,14.83
2024-01-14T19:44:21.567Z,14.89
2024-01-14T19:47:28.860Z,14.88
2024-01-14T19:50:31.501Z,14.89
2024-01-14T19:53:35.336Z,15.02
2024-01-14T19:56:44.495Z,15.02
2024-01-14T19:59:47.310Z,15.14
2024-01-14T20:02:50.188Z,15.25
2024-01-14T20:05:53.115Z,15.42
2024-01-14T20:08:56.552Z,15.52
2024-01-14T20:12:01.456Z,15.64
2024-01-14T20:15:05.064Z,15.70
2024-01-14T20:18:07.957Z,15.75
2024-01-14T20:21:10.731Z,15.78
2024-01-14T20:24:14.488Z,15.75
2024-01-14T20:27:17.360Z,15.66
2024-01-14T20:30:21.359Z,15.62
2024-01-14T20:33:26.889Z,15.59
2024-01-14T20:36:29.787Z,15.49
2024-01-14T20:39:32.626Z,15.49
2024-01-14T20:42:35.209Z,15.45
2024-01-14T20:45:37.728Z,15.35
2024-01-14T20:48:40.591Z,15.34
2024-01-14T20:51:43.507Z,15.29
2024-01-14T20:54:47.281Z,15.26
2024-01-14T20:57:49.945Z,15.12
2024-01-14T21:00:52.574Z,15.11
2024-01-14T21:03:55.855Z,15.04
2024-01-14T21:06:58.498Z,14.93
2024-01-14T21:10:01.044Z,14.82
2024-01-14T21:13:06.369Z,14.86
2024-01-14T21:16:09.049Z,14.89
2024-01-14T21:19:11.682Z,14.89
2024-01-14T21:22:15.616Z,14.89
2024-01-14T21:25:18.023Z,14.98
2024-01-14T21:28:20.888Z,15.05
2024-01-14T21:31:23.331Z,15.06
2024-01-14T21:34:26.529Z,15.18
2024-01-14T21:37:29.042Z,15.32
2024-01-14T21:40:31.611Z,15.41
2024-01-14T21:43:37.976Z,15.54
2024-01-14T21:46:40.811Z,15.62
2024-01-14T21:49:43.563Z,15.71
2024-01-14T21:52:46.015Z,15.76
2024-01-14T21:55:48.913Z,15.78
2024-01-14T21:58:51.313Z,15.78
2024-01-14T22:01:55.262Z,15.71
2024-01-14T22:04:57.836Z,15.62
2024-01-14T22:08:00.971Z,15.56
2024-01-14T22:11:03.512Z,15.58
2024-01-14T22:14:05.968Z,15.50
2024-01-14T22:17:08.534Z,15.44
2024-01-14T22:20:17.826Z,15.43
2024-01-14T22:23:20.226Z,15.38
2024-01-14T22:26:22.603Z,15.35
2024-01-14T22:29:26.413Z,15.22
2024-01-14T22:32:28.823Z,15.13
2024-01-14T22:35:31.693Z,15.06
2024-01-14T22:38:34.100Z,14.99
2024-01-14T22:41:37.609Z,14.92
2024-01-14T22:44:39.977Z,14.78
2024-01-14T22:47:42.446Z,14.84
2024-01-14T22:50:44.932Z,14.78
2024-01-14T22:53:48.801Z,14.88
2024-01-14T22:56:51.201Z,14.92
2024-01-14T22:59:53.710Z,14.95
2024-01-14T23:02:56.678Z,15.01
2024-01-14T23:05:59.170Z,15.07
2024-01-14T23:09:01.655Z,15.19
2024-01-14T23:12:04.919Z,15.27
2024-01-14T23:15:09.140Z,15.40
2024-01-14T23:18:13.081Z,15.46
2024-01-14T23:21:15.743Z,15.57
2024-01-14T23:24:18.208Z,15.65
2024-01-14T23:27:20.985Z,15.70
2024-01-14T23:30:23.961Z,15.71
2024-01-14T23:33:26.569Z,15.72
2024-01-14T23:36:29.187Z,15.61
2024-01-14T23:39:31.643Z,15.62
2024-01-14T23:42:34.114Z,15.48
2024-01-14T23:45:36.621Z,15.43
2024-01-14T23:48:39.216Z,15.40
2024-01-14T23:51:41.866Z,15.34
2024-01-14T23:54:44.431Z,15.24
2024-01-14T23:57:46.940Z,15.29
